Terminal Aerodrome Forecast
Issued by NWS Wilmington, OH

Current Version | Previous Version | Text Only | Print | Product List | Glossary Off
Versions: 1 2 3 4 5 6 7 8 9 10 11 12 13 14 15 16 17 18 19 20 21

000
FTUS41 KILN 210539
TAFILN
TAF
KILN 210539Z 2106/2206 19012KT P6SM SCT080
     FM211100 20014G20KT P6SM VCSH BKN025 OVC080
     FM211300 32011KT 5SM -SHRA BR BKN006 OVC012
     FM211700 01011KT P6SM VCSH OVC006
     FM212300 03012KT P6SM OVC008
     FM220300 04012KT 3SM -RA BR OVC006=

USA.gov is the U.S. government's official web portal to all federal, state and local government web resources and services.